Time,TemperatureF,DewpointF,PressureIn,WindDirection,WindDirectionDegrees,WindSpeedMPH,WindSpeedGustMPH,Humidity,HourlyPrecipIn,Conditions,Clouds,dailyrainin,SoftwareType,DateUTC
2013-04-26 00:01:00,41.9,39.4,30.30,NNE,14,0.0,3.0,91,0.00,,,0.00,meteohub,2013-04-26 04:01:00,
2013-04-26 00:06:00,41.9,39.4,30.30,NNE,14,0.0,3.0,91,0.00,,,0.00,meteohub,2013-04-26 04:06:00,
2013-04-26 00:12:00,41.9,39.4,30.30,NNE,15,1.0,2.0,91,0.00,,,0.00,meteohub,2013-04-26 04:12:00,
2013-04-26 00:17:00,41.9,39.4,30.30,NNE,15,1.0,2.0,91,0.00,,,0.00,meteohub,2013-04-26 04:17:00,
2013-04-26 00:22:00,41.7,39.6,30.30,NNE,16,1.0,2.0,92,0.00,,,0.00,meteohub,2013-04-26 04:22:00,
2013-04-26 00:27:00,41.5,39.4,30.31,NNE,16,0.0,2.0,92,0.00,,,0.00,meteohub,2013-04-26 04:27:00,
2013-04-26 00:32:00,41.5,39.4,30.30,NNE,17,0.0,2.0,92,0.00,,,0.00,meteohub,2013-04-26 04:32:00,
2013-04-26 00:37:00,41.5,39.7,30.30,NNE,16,0.0,2.0,93,0.00,,,0.00,meteohub,2013-04-26 04:37:00,
2013-04-26 00:42:00,41.5,39.4,30.30,NNE,16,0.0,1.0,92,0.00,,,0.00,meteohub,2013-04-26 04:42:00,
2013-04-26 00:47:00,41.5,39.4,30.30,NNE,17,0.0,0.0,92,0.00,,,0.00,meteohub,2013-04-26 04:47:00,
2013-04-26 00:52:00,41.4,39.2,30.31,NNE,28,1.0,2.0,92,0.00,,,0.00,meteohub,2013-04-26 04:52:00,
2013-04-26 00:57:00,41.2,39.4,30.30,NNE,28,0.0,2.0,93,0.00,,,0.00,meteohub,2013-04-26 04:57:00,
2013-04-26 01:02:00,41.2,39.4,30.31,NNE,28,1.0,2.0,93,0.00,,,0.00,meteohub,2013-04-26 05:02:00,
2013-04-26 01:07:00,41.2,39.6,30.31,ESE,119,4.0,4.0,94,0.00,,,0.00,meteohub,2013-04-26 05:07:00,
2013-04-26 01:12:00,41.2,39.6,30.31,SSE,166,4.0,4.0,94,0.00,,,0.00,meteohub,2013-04-26 05:12:00,
2013-04-26 01:17:00,41.2,39.4,30.31,South,169,2.0,5.0,93,0.00,,,0.00,meteohub,2013-04-26 05:17:00,
2013-04-26 01:22:00,41.2,39.6,30.31,South,169,3.0,5.0,94,0.00,,,0.00,meteohub,2013-04-26 05:22:00,
2013-04-26 01:27:00,41.2,39.6,30.31,South,169,1.0,5.0,94,0.00,,,0.00,meteohub,2013-04-26 05:27:00,
2013-04-26 01:32:00,41.0,39.4,30.31,South,170,2.0,4.0,94,0.00,,,0.00,meteohub,2013-04-26 05:32:00,
2013-04-26 01:37:00,41.0,39.4,30.31,South,171,3.0,4.0,94,0.00,,,0.00,meteohub,2013-04-26 05:37:00,
2013-04-26 01:42:00,40.8,39.2,30.32,South,171,2.0,4.0,94,0.00,,,0.00,meteohub,2013-04-26 05:42:00,
2013-04-26 01:47:00,40.5,38.8,30.32,South,171,1.0,4.0,94,0.00,,,0.00,meteohub,2013-04-26 05:47:00,
2013-04-26 01:52:00,40.3,38.7,30.32,South,171,0.0,4.0,94,0.00,,,0.00,meteohub,2013-04-26 05:52:00,
2013-04-26 01:57:00,40.3,39.0,30.32,South,171,3.0,3.0,95,0.00,,,0.00,meteohub,2013-04-26 05:57:00,
2013-04-26 02:02:00,40.3,39.0,30.32,South,178,5.0,5.0,95,0.00,,,0.00,meteohub,2013-04-26 06:02:00,
2013-04-26 02:07:00,40.5,38.8,30.32,South,187,3.0,6.0,94,0.00,,,0.00,meteohub,2013-04-26 06:07:00,
2013-04-26 02:12:00,40.3,38.7,30.32,South,187,4.0,6.0,94,0.00,,,0.00,meteohub,2013-04-26 06:12:00,
2013-04-26 02:17:00,40.3,39.0,30.32,South,187,3.0,6.0,95,0.00,,,0.00,meteohub,2013-04-26 06:17:00,
2013-04-26 02:22:00,40.1,38.8,30.32,South,186,3.0,6.0,95,0.00,,,0.00,meteohub,2013-04-26 06:22:00,
2013-04-26 02:27:00,39.9,38.7,30.32,South,186,5.0,6.0,95,0.00,,,0.00,meteohub,2013-04-26 06:27:00,
2013-04-26 02:32:00,39.7,38.5,30.32,South,186,5.0,5.0,95,0.00,,,0.00,meteohub,2013-04-26 06:32:00,
2013-04-26 02:37:00,39.6,38.3,30.32,South,186,4.0,6.0,95,0.00,,,0.00,meteohub,2013-04-26 06:37:00,
2013-04-26 02:42:00,39.2,37.9,30.32,South,186,3.0,6.0,95,0.00,,,0.00,meteohub,2013-04-26 06:42:00,
2013-04-26 02:48:00,39.0,37.8,30.33,South,187,4.0,6.0,95,0.00,,,0.00,meteohub,2013-04-26 06:48:00,
2013-04-26 02:53:00,39.4,38.1,30.32,South,188,5.0,5.0,95,0.00,,,0.00,meteohub,2013-04-26 06:53:00,
2013-04-26 02:58:00,39.6,38.3,30.32,South,188,3.0,6.0,95,0.00,,,0.00,meteohub,2013-04-26 06:58:00,
2013-04-26 03:03:00,39.4,38.1,30.33,South,188,3.0,6.0,95,0.00,,,0.00,meteohub,2013-04-26 07:03:00,
2013-04-26 03:08:00,39.0,37.8,30.33,South,188,4.0,6.0,95,0.00,,,0.00,meteohub,2013-04-26 07:08:00,
2013-04-26 03:13:00,38.8,37.6,30.33,South,187,4.0,6.0,95,0.00,,,0.00,meteohub,2013-04-26 07:13:00,
2013-04-26 03:18:00,38.8,37.6,30.33,South,188,5.0,7.0,95,0.00,,,0.00,meteohub,2013-04-26 07:18:00,
2013-04-26 03:23:00,38.8,37.6,30.33,South,182,4.0,7.0,95,0.00,,,0.00,meteohub,2013-04-26 07:23:00,
2013-04-26 03:28:00,39.0,37.8,30.33,South,182,6.0,7.0,95,0.00,,,0.00,meteohub,2013-04-26 07:28:00,
2013-04-26 03:34:00,39.2,37.9,30.34,South,188,5.0,7.0,95,0.00,,,0.00,meteohub,2013-04-26 07:34:00,
2013-04-26 03:39:00,38.8,37.2,30.34,South,176,5.0,10.0,94,0.00,,,0.00,meteohub,2013-04-26 07:39:00,
2013-04-26 03:44:00,38.8,37.2,30.34,South,182,5.0,10.0,94,0.00,,,0.00,meteohub,2013-04-26 07:44:00,
2013-04-26 03:49:00,38.7,37.4,30.34,South,184,6.0,10.0,95,0.00,,,0.00,meteohub,2013-04-26 07:49:00,
2013-04-26 03:54:00,38.7,37.4,30.35,South,186,4.0,10.0,95,0.00,,,0.00,meteohub,2013-04-26 07:54:00,
2013-04-26 03:59:00,38.5,37.2,30.35,South,184,4.0,7.0,95,0.00,,,0.00,meteohub,2013-04-26 07:59:00,
2013-04-26 04:04:00,38.7,37.4,30.35,South,187,7.0,9.0,95,0.00,,,0.00,meteohub,2013-04-26 08:04:00,
2013-04-26 04:09:00,38.5,36.9,30.35,SSW,193,9.0,9.0,94,0.00,,,0.00,meteohub,2013-04-26 08:09:00,
2013-04-26 04:14:00,38.7,37.0,30.36,South,188,9.0,10.0,94,0.00,,,0.00,meteohub,2013-04-26 08:14:00,
2013-04-26 04:19:00,38.7,37.0,30.36,South,190,9.0,11.0,94,0.00,,,0.00,meteohub,2013-04-26 08:19:00,
2013-04-26 04:24:00,38.7,37.0,30.36,South,184,8.0,11.0,94,0.00,,,0.00,meteohub,2013-04-26 08:24:00,
2013-04-26 04:30:00,38.7,37.0,30.35,South,177,7.0,12.0,94,0.00,,,0.00,meteohub,2013-04-26 08:30:00,
2013-04-26 04:35:00,38.7,37.0,30.36,South,181,5.0,12.0,94,0.00,,,0.00,meteohub,2013-04-26 08:35:00,
2013-04-26 04:40:00,38.3,36.7,30.36,South,177,3.0,11.0,94,0.00,,,0.00,meteohub,2013-04-26 08:40:00,
2013-04-26 04:45:00,38.1,36.5,30.36,South,180,3.0,11.0,94,0.00,,,0.00,meteohub,2013-04-26 08:45:00,
2013-04-26 04:50:00,37.9,36.3,30.36,South,183,5.0,10.0,94,0.00,,,0.00,meteohub,2013-04-26 08:50:00,
2013-04-26 04:55:00,37.9,36.7,30.36,South,180,5.0,6.0,95,0.00,,,0.00,meteohub,2013-04-26 08:55:00,
2013-04-26 05:00:00,37.9,36.3,30.36,South,175,4.0,6.0,94,0.00,,,0.00,meteohub,2013-04-26 09:00:00,
2013-04-26 05:05:00,37.8,36.1,30.36,South,173,6.0,7.0,94,0.00,,,0.00,meteohub,2013-04-26 09:05:00,
2013-04-26 05:10:00,37.8,36.5,30.35,SSE,167,5.0,7.0,95,0.00,,,0.00,meteohub,2013-04-26 09:10:00,
2013-04-26 05:15:00,37.8,36.1,30.36,South,169,4.0,7.0,94,0.00,,,0.00,meteohub,2013-04-26 09:15:00,
2013-04-26 05:20:00,37.8,36.1,30.36,South,171,4.0,7.0,94,0.00,,,0.00,meteohub,2013-04-26 09:20:00,
2013-04-26 05:26:00,37.8,36.1,30.36,South,172,5.0,7.0,94,0.00,,,0.00,meteohub,2013-04-26 09:26:00,
2013-04-26 05:31:00,37.8,36.1,30.36,South,177,7.0,7.0,94,0.00,,,0.00,meteohub,2013-04-26 09:31:00,
2013-04-26 05:36:00,37.9,36.3,30.36,South,186,5.0,10.0,94,0.00,,,0.00,meteohub,2013-04-26 09:36:00,
2013-04-26 05:41:00,37.6,36.0,30.36,South,174,5.0,10.0,94,0.00,,,0.00,meteohub,2013-04-26 09:41:00,
2013-04-26 05:46:00,37.0,35.4,30.37,South,173,5.0,10.0,94,0.00,,,0.00,meteohub,2013-04-26 09:46:00,
2013-04-26 05:51:00,36.9,35.6,30.36,South,173,6.0,7.0,95,0.00,,,0.00,meteohub,2013-04-26 09:51:00,
2013-04-26 05:56:00,36.7,35.4,30.37,SSE,168,5.0,7.0,95,0.00,,,0.00,meteohub,2013-04-26 09:56:00,
2013-04-26 06:01:00,36.7,35.4,30.37,South,170,7.0,7.0,95,0.00,,,0.00,meteohub,2013-04-26 10:01:00,
2013-04-26 06:06:00,36.7,35.4,30.37,South,170,6.0,7.0,95,0.00,,,0.00,meteohub,2013-04-26 10:06:00,
2013-04-26 06:11:00,36.7,35.4,30.37,South,170,5.0,7.0,95,0.00,,,0.00,meteohub,2013-04-26 10:11:00,
2013-04-26 06:16:00,36.7,35.4,30.37,South,169,7.0,9.0,95,0.00,,,0.00,meteohub,2013-04-26 10:16:00,
2013-04-26 06:21:00,36.7,35.1,30.37,SSE,166,8.0,9.0,94,0.00,,,0.00,meteohub,2013-04-26 10:21:00,
2013-04-26 06:26:00,36.3,34.7,30.38,SSE,164,6.0,9.0,94,0.00,,,0.00,meteohub,2013-04-26 10:26:00,
2013-04-26 06:32:00,36.3,34.7,30.38,SSE,167,6.0,9.0,94,0.00,,,0.00,meteohub,2013-04-26 10:32:00,
2013-04-26 06:37:00,36.3,34.7,30.38,SSE,168,6.0,9.0,94,0.00,,,0.00,meteohub,2013-04-26 10:37:00,
2013-04-26 06:42:00,36.3,34.7,30.38,SSE,167,5.0,9.0,94,0.00,,,0.00,meteohub,2013-04-26 10:42:00,
2013-04-26 06:47:00,36.3,34.7,30.38,South,169,5.0,10.0,94,0.00,,,0.00,meteohub,2013-04-26 10:47:00,
2013-04-26 06:52:00,36.3,34.7,30.38,South,170,6.0,10.0,94,0.00,,,0.00,meteohub,2013-04-26 10:52:00,
2013-04-26 06:57:00,36.5,34.9,30.39,South,169,6.0,9.0,94,0.00,,,0.00,meteohub,2013-04-26 10:57:00,
2013-04-26 07:02:00,36.7,35.1,30.39,SSE,168,5.0,9.0,94,0.00,,,0.00,meteohub,2013-04-26 11:02:00,
2013-04-26 07:07:00,36.9,35.1,30.40,South,171,6.0,9.0,93,0.00,,,0.00,meteohub,2013-04-26 11:07:00,
2013-04-26 07:12:00,37.0,35.2,30.39,South,174,5.0,8.0,93,0.00,,,0.00,meteohub,2013-04-26 11:12:00,
2013-04-26 07:17:00,37.4,35.6,30.40,South,175,0.0,8.0,93,0.00,,,0.00,meteohub,2013-04-26 11:17:00,
2013-04-26 07:22:00,38.1,36.3,30.40,South,175,0.0,7.0,93,0.00,,,0.00,meteohub,2013-04-26 11:22:00,
2013-04-26 07:27:00,38.5,36.3,30.40,South,175,0.0,7.0,92,0.00,,,0.00,meteohub,2013-04-26 11:27:00,
2013-04-26 07:32:00,38.7,36.5,30.40,South,175,0.0,0.0,92,0.00,,,0.00,meteohub,2013-04-26 11:32:00,
2013-04-26 07:37:00,38.8,36.5,30.40,South,175,0.0,0.0,91,0.00,,,0.00,meteohub,2013-04-26 11:37:00,
2013-04-26 07:42:00,39.0,36.3,30.40,South,175,0.0,0.0,90,0.00,,,0.00,meteohub,2013-04-26 11:42:00,
2013-04-26 07:47:00,39.4,36.7,30.41,South,175,0.0,0.0,90,0.00,,,0.00,meteohub,2013-04-26 11:47:00,
2013-04-26 07:52:00,39.6,36.9,30.41,South,175,0.0,0.0,90,0.00,,,0.00,meteohub,2013-04-26 11:52:00,
2013-04-26 07:57:00,39.7,36.7,30.41,South,175,0.0,0.0,89,0.00,,,0.00,meteohub,2013-04-26 11:57:00,
2013-04-26 08:02:00,40.3,37.0,30.41,South,175,3.0,5.0,88,0.00,,,0.00,meteohub,2013-04-26 12:02:00,
2013-04-26 08:07:00,40.6,37.4,30.41,South,175,0.0,5.0,88,0.00,,,0.00,meteohub,2013-04-26 12:07:00,
2013-04-26 08:12:00,41.2,37.6,30.41,South,175,0.0,5.0,87,0.00,,,0.00,meteohub,2013-04-26 12:12:00,
2013-04-26 08:17:00,41.5,37.9,30.41,South,175,0.0,4.0,87,0.00,,,0.00,meteohub,2013-04-26 12:17:00,
2013-04-26 08:22:00,42.4,38.5,30.41,South,175,0.0,0.0,86,0.00,,,0.00,meteohub,2013-04-26 12:22:00,
2013-04-26 08:27:00,43.3,39.4,30.41,South,175,0.0,0.0,86,0.00,,,0.00,meteohub,2013-04-26 12:27:00,
2013-04-26 08:32:00,45.0,40.5,30.41,South,175,0.0,0.0,84,0.00,,,0.00,meteohub,2013-04-26 12:32:00,
2013-04-26 08:37:00,45.1,39.9,30.41,South,175,0.0,0.0,82,0.00,,,0.00,meteohub,2013-04-26 12:37:00,
2013-04-26 08:42:00,43.9,39.4,30.42,SW,233,3.0,0.0,84,0.00,,,0.00,meteohub,2013-04-26 12:42:00,
2013-04-26 08:47:00,43.2,39.0,30.43,SW,233,0.0,3.0,85,0.00,,,0.00,meteohub,2013-04-26 12:47:00,
2013-04-26 08:52:00,43.0,39.0,30.43,SW,233,0.0,3.0,86,0.00,,,0.00,meteohub,2013-04-26 12:52:00,
2013-04-26 08:57:00,43.2,39.0,30.43,SW,233,0.0,3.0,85,0.00,,,0.00,meteohub,2013-04-26 12:57:00,
2013-04-26 09:02:00,43.3,39.2,30.43,SW,233,0.0,2.0,85,0.00,,,0.00,meteohub,2013-04-26 13:02:00,
2013-04-26 09:07:00,43.3,39.2,30.43,SW,233,0.0,2.0,85,0.00,,,0.00,meteohub,2013-04-26 13:07:00,
2013-04-26 09:12:00,43.5,38.7,30.43,SW,233,0.0,2.0,83,0.00,,,0.00,meteohub,2013-04-26 13:12:00,
2013-04-26 09:17:00,43.9,39.4,30.44,SW,233,0.0,1.0,84,0.00,,,0.00,meteohub,2013-04-26 13:17:00,
2013-04-26 09:22:00,44.1,39.6,30.43,SW,233,1.0,2.0,84,0.00,,,0.00,meteohub,2013-04-26 13:22:00,
2013-04-26 09:27:00,43.9,39.9,30.43,SW,233,0.0,3.0,86,0.00,,,0.00,meteohub,2013-04-26 13:27:00,
2013-04-26 09:32:00,43.9,40.3,30.43,SW,233,0.0,3.0,87,0.00,,,0.00,meteohub,2013-04-26 13:32:00,
2013-04-26 09:37:00,44.1,40.1,30.44,SW,233,0.0,3.0,86,0.00,,,0.00,meteohub,2013-04-26 13:37:00,
2013-04-26 09:42:00,44.2,40.1,30.44,SW,233,0.0,0.0,85,0.00,,,0.00,meteohub,2013-04-26 13:42:00,
2013-04-26 09:47:00,44.6,40.1,30.43,SW,233,0.0,0.0,84,0.00,,,0.00,meteohub,2013-04-26 13:47:00,
2013-04-26 09:52:00,45.1,40.3,30.43,SW,233,0.0,0.0,83,0.00,,,0.00,meteohub,2013-04-26 13:52:00,
2013-04-26 09:57:00,45.7,40.8,30.43,SW,233,0.0,0.0,83,0.00,,,0.00,meteohub,2013-04-26 13:57:00,
2013-04-26 10:02:00,46.0,41.2,30.43,SW,233,3.0,3.0,83,0.00,,,0.00,meteohub,2013-04-26 14:02:00,
2013-04-26 10:07:00,45.7,40.5,30.43,SW,233,2.0,4.0,82,0.00,,,0.00,meteohub,2013-04-26 14:07:00,
2013-04-26 10:12:00,45.7,40.1,30.44,SW,233,2.0,4.0,81,0.00,,,0.00,meteohub,2013-04-26 14:12:00,
2013-04-26 10:17:00,45.9,40.1,30.44,SW,233,2.0,4.0,80,0.00,,,0.00,meteohub,2013-04-26 14:17:00,
2013-04-26 10:22:00,46.0,39.6,30.44,SW,233,3.0,4.0,78,0.00,,,0.00,meteohub,2013-04-26 14:22:00,
2013-04-26 10:27:00,46.0,38.8,30.45,SW,233,2.0,5.0,76,0.00,,,0.00,meteohub,2013-04-26 14:27:00,
2013-04-26 10:32:00,46.2,39.0,30.45,WNW,296,3.0,5.0,76,0.00,,,0.00,meteohub,2013-04-26 14:32:00,
2013-04-26 10:37:00,46.2,39.7,30.45,WNW,296,3.0,6.0,78,0.00,,,0.00,meteohub,2013-04-26 14:37:00,
2013-04-26 10:42:00,46.0,38.5,30.45,WNW,296,3.0,6.0,75,0.00,,,0.00,meteohub,2013-04-26 14:42:00,
2013-04-26 10:47:00,46.2,39.4,30.45,WNW,302,5.0,5.0,77,0.00,,,0.00,meteohub,2013-04-26 14:47:00,
2013-04-26 10:52:00,46.0,39.2,30.45,NW,308,5.0,6.0,77,0.00,,,0.00,meteohub,2013-04-26 14:52:00,
2013-04-26 10:57:00,45.9,39.4,30.46,NW,309,5.0,6.0,78,0.00,,,0.00,meteohub,2013-04-26 14:57:00,
2013-04-26 11:02:00,45.7,39.2,30.45,NW,314,6.0,7.0,78,0.00,,,0.00,meteohub,2013-04-26 15:02:00,
2013-04-26 11:08:00,45.5,39.7,30.46,NW,319,5.0,8.0,80,0.00,,,0.00,meteohub,2013-04-26 15:08:00,
2013-04-26 11:13:00,45.7,39.6,30.46,NNW,328,5.0,8.0,79,0.00,,,0.00,meteohub,2013-04-26 15:13:00,
2013-04-26 11:18:00,45.7,39.2,30.46,NNW,328,5.0,8.0,78,0.00,,,0.00,meteohub,2013-04-26 15:18:00,
2013-04-26 11:23:00,45.7,38.5,30.46,NNW,329,5.0,7.0,76,0.00,,,0.00,meteohub,2013-04-26 15:23:00,
2013-04-26 11:28:00,45.9,38.1,30.45,NNW,329,5.0,6.0,74,0.00,,,0.00,meteohub,2013-04-26 15:28:00,
2013-04-26 11:33:00,46.0,38.8,30.45,NNW,329,5.0,6.0,76,0.00,,,0.00,meteohub,2013-04-26 15:33:00,
2013-04-26 11:38:00,46.0,38.5,30.45,NNW,333,6.0,6.0,75,0.00,,,0.00,meteohub,2013-04-26 15:38:00,
2013-04-26 11:43:00,46.0,38.3,30.45,NNW,339,6.0,6.0,74,0.00,,,0.00,meteohub,2013-04-26 15:43:00,
2013-04-26 11:48:00,46.0,38.3,30.45,NNW,340,10.0,10.0,74,0.00,,,0.00,meteohub,2013-04-26 15:48:00,
2013-04-26 11:53:00,46.0,38.5,30.45,NNW,342,10.0,10.0,75,0.00,,,0.00,meteohub,2013-04-26 15:53:00,
2013-04-26 11:58:00,45.9,39.0,30.46,NNW,345,10.0,11.0,77,0.00,,,0.00,meteohub,2013-04-26 15:58:00,
2013-04-26 12:04:00,45.9,38.3,30.45,NNW,344,9.0,11.0,75,0.00,,,0.00,meteohub,2013-04-26 16:04:00,
2013-04-26 12:09:00,45.9,38.1,30.46,NNW,344,9.0,11.0,74,0.00,,,0.00,meteohub,2013-04-26 16:09:00,
2013-04-26 12:14:00,45.9,39.0,30.46,NNW,343,7.0,11.0,77,0.00,,,0.00,meteohub,2013-04-26 16:14:00,
2013-04-26 12:19:00,45.7,38.5,30.45,NNW,343,10.0,11.0,76,0.00,,,0.00,meteohub,2013-04-26 16:19:00,
2013-04-26 12:24:00,45.3,38.1,30.46,NNW,340,10.0,11.0,76,0.00,,,0.00,meteohub,2013-04-26 16:24:00,
2013-04-26 12:29:00,45.5,39.0,30.45,NNW,340,9.0,11.0,78,0.00,,,0.00,meteohub,2013-04-26 16:29:00,
2013-04-26 12:34:00,45.3,39.2,30.45,NNW,340,7.0,11.0,79,0.00,,,0.00,meteohub,2013-04-26 16:34:00,
2013-04-26 12:39:00,45.3,38.1,30.45,NNW,340,9.0,10.0,76,0.00,,,0.00,meteohub,2013-04-26 16:39:00,
2013-04-26 12:44:00,45.5,39.0,30.45,NNW,344,7.0,10.0,78,0.00,,,0.00,meteohub,2013-04-26 16:44:00,
2013-04-26 12:50:00,45.3,37.9,30.45,NNW,345,7.0,10.0,75,0.00,,,0.00,meteohub,2013-04-26 16:50:00,
2013-04-26 12:55:00,45.5,37.4,30.45,NNW,344,7.0,10.0,73,0.00,,,0.00,meteohub,2013-04-26 16:55:00,
2013-04-26 13:00:00,45.5,38.1,30.44,NNW,344,10.0,11.0,75,0.00,,,0.00,meteohub,2013-04-26 17:00:00,
2013-04-26 13:05:00,45.5,38.7,30.45,NNW,344,10.0,11.0,77,0.00,,,0.00,meteohub,2013-04-26 17:05:00,
2013-04-26 13:10:00,45.5,38.1,30.44,NNW,347,8.0,11.0,75,0.00,,,0.00,meteohub,2013-04-26 17:10:00,
2013-04-26 13:15:00,45.7,38.3,30.44,North,355,8.0,10.0,75,0.00,,,0.00,meteohub,2013-04-26 17:15:00,
2013-04-26 13:20:00,45.9,38.7,30.44,North,355,9.0,10.0,76,0.00,,,0.00,meteohub,2013-04-26 17:20:00,
2013-04-26 13:25:00,45.9,38.7,30.44,North,355,9.0,10.0,76,0.00,,,0.00,meteohub,2013-04-26 17:25:00,
2013-04-26 13:30:00,45.9,38.7,30.44,North,355,7.0,10.0,76,0.00,,,0.00,meteohub,2013-04-26 17:30:00,
2013-04-26 13:35:00,45.9,38.7,30.45,North,355,10.0,10.0,76,0.00,,,0.00,meteohub,2013-04-26 17:35:00,
2013-04-26 13:41:00,45.9,38.3,30.45,North,355,9.0,11.0,75,0.00,,,0.00,meteohub,2013-04-26 17:41:00,
2013-04-26 13:46:00,45.9,38.3,30.45,North,355,11.0,11.0,75,0.00,,,0.00,meteohub,2013-04-26 17:46:00,
2013-04-26 13:51:00,45.9,39.4,30.44,North,355,7.0,11.0,78,0.00,,,0.00,meteohub,2013-04-26 17:51:00,
2013-04-26 13:56:00,45.9,38.7,30.45,North,355,10.0,11.0,76,0.00,,,0.00,meteohub,2013-04-26 17:56:00,
2013-04-26 14:01:00,45.7,39.6,30.44,North,355,9.0,11.0,79,0.00,,,0.00,meteohub,2013-04-26 18:01:00,
2013-04-26 14:06:00,45.7,38.5,30.45,North,355,6.0,12.0,76,0.00,,,0.00,meteohub,2013-04-26 18:06:00,
2013-04-26 14:11:00,45.9,38.3,30.45,North,5,9.0,12.0,75,0.00,,,0.00,meteohub,2013-04-26 18:11:00,
2013-04-26 14:16:00,45.9,39.0,30.44,North,5,7.0,11.0,77,0.00,,,0.00,meteohub,2013-04-26 18:16:00,
2013-04-26 14:21:00,46.0,38.5,30.45,NNE,17,8.0,11.0,75,0.00,,,0.00,meteohub,2013-04-26 18:21:00,
2013-04-26 14:27:00,46.2,38.1,30.44,NNE,15,7.0,11.0,73,0.00,,,0.00,meteohub,2013-04-26 18:27:00,
2013-04-26 14:32:00,46.6,38.5,30.44,NNE,18,7.0,11.0,73,0.00,,,0.00,meteohub,2013-04-26 18:32:00,
2013-04-26 14:37:00,46.8,38.8,30.44,NNE,15,9.0,10.0,74,0.00,,,0.00,meteohub,2013-04-26 18:37:00,
2013-04-26 14:42:00,46.9,38.1,30.44,NNE,15,6.0,10.0,71,0.00,,,0.00,meteohub,2013-04-26 18:42:00,
2013-04-26 14:47:00,46.9,38.3,30.44,NNE,16,10.0,11.0,72,0.00,,,0.00,meteohub,2013-04-26 18:47:00,
2013-04-26 14:52:00,46.6,37.0,30.44,NE,38,11.0,11.0,69,0.00,,,0.00,meteohub,2013-04-26 18:52:00,
2013-04-26 14:57:00,46.4,36.9,30.44,NNE,31,10.0,11.0,69,0.00,,,0.00,meteohub,2013-04-26 18:57:00,
2013-04-26 15:02:00,46.6,37.4,30.43,NE,38,8.0,11.0,70,0.00,,,0.00,meteohub,2013-04-26 19:02:00,
2013-04-26 15:07:00,46.6,38.1,30.43,NE,40,7.0,11.0,72,0.00,,,0.00,meteohub,2013-04-26 19:07:00,
2013-04-26 15:12:00,46.9,36.1,30.43,NE,42,10.0,11.0,66,0.00,,,0.00,meteohub,2013-04-26 19:12:00,
2013-04-26 15:17:00,47.1,34.7,30.43,NE,36,8.0,11.0,62,0.00,,,0.00,meteohub,2013-04-26 19:17:00,
2013-04-26 15:22:00,47.5,35.6,30.43,NE,45,9.0,11.0,63,0.00,,,0.00,meteohub,2013-04-26 19:22:00,
2013-04-26 15:27:00,47.5,36.7,30.42,ENE,73,11.0,11.0,66,0.00,,,0.00,meteohub,2013-04-26 19:27:00,
2013-04-26 15:32:00,46.9,36.1,30.42,ENE,75,11.0,14.0,66,0.00,,,0.00,meteohub,2013-04-26 19:32:00,
2013-04-26 15:37:00,46.9,36.5,30.42,ENE,69,12.0,14.0,67,0.00,,,0.00,meteohub,2013-04-26 19:37:00,
2013-04-26 15:42:00,46.9,35.1,30.42,ENE,72,12.0,14.0,63,0.00,,,0.00,meteohub,2013-04-26 19:42:00,
2013-04-26 15:47:00,46.8,36.0,30.42,ENE,75,11.0,13.0,66,0.00,,,0.00,meteohub,2013-04-26 19:47:00,
2013-04-26 15:52:00,46.8,36.0,30.41,ENE,76,12.0,13.0,66,0.00,,,0.00,meteohub,2013-04-26 19:52:00,
2013-04-26 15:57:00,46.8,35.2,30.42,ENE,76,10.0,13.0,64,0.00,,,0.00,meteohub,2013-04-26 19:57:00,
2013-04-26 16:02:00,46.8,36.0,30.41,ENE,71,13.0,13.0,66,0.00,,,0.00,meteohub,2013-04-26 20:02:00,
2013-04-26 16:07:00,46.6,36.5,30.41,ENE,78,12.0,13.0,68,0.00,,,0.00,meteohub,2013-04-26 20:07:00,
2013-04-26 16:12:00,46.2,36.0,30.41,ENE,72,12.0,13.0,67,0.00,,,0.00,meteohub,2013-04-26 20:12:00,
2013-04-26 16:17:00,46.0,36.5,30.41,ENE,69,12.0,13.0,69,0.00,,,0.00,meteohub,2013-04-26 20:17:00,
2013-04-26 16:22:00,46.0,37.6,30.41,ENE,76,13.0,13.0,72,0.00,,,0.00,meteohub,2013-04-26 20:22:00,
2013-04-26 16:27:00,46.0,37.6,30.40,ENE,71,11.0,14.0,72,0.00,,,0.00,meteohub,2013-04-26 20:27:00,
2013-04-26 16:32:00,46.0,36.9,30.40,ENE,73,13.0,14.0,70,0.00,,,0.00,meteohub,2013-04-26 20:32:00,
2013-04-26 16:37:00,46.0,36.9,30.40,ENE,66,12.0,14.0,70,0.00,,,0.00,meteohub,2013-04-26 20:37:00,
2013-04-26 16:42:00,46.2,36.7,30.40,ENE,67,12.0,14.0,69,0.00,,,0.00,meteohub,2013-04-26 20:42:00,
2013-04-26 16:47:00,46.2,38.1,30.39,ENE,76,13.0,14.0,73,0.00,,,0.00,meteohub,2013-04-26 20:47:00,
2013-04-26 16:52:00,46.2,37.8,30.39,ENE,60,12.0,14.0,72,0.00,,,0.00,meteohub,2013-04-26 20:52:00,
2013-04-26 16:57:00,46.2,37.4,30.39,ENE,61,14.0,14.0,71,0.00,,,0.00,meteohub,2013-04-26 20:57:00,
2013-04-26 17:02:00,46.2,36.7,30.39,ENE,70,12.0,14.0,69,0.00,,,0.00,meteohub,2013-04-26 21:02:00,
2013-04-26 17:07:00,46.6,35.8,30.39,ENE,65,11.0,14.0,66,0.00,,,0.00,meteohub,2013-04-26 21:07:00,
2013-04-26 17:12:00,46.8,36.3,30.38,ENE,69,12.0,14.0,67,0.00,,,0.00,meteohub,2013-04-26 21:12:00,
2013-04-26 17:17:00,46.6,38.1,30.38,ENE,65,15.0,15.0,72,0.00,,,0.00,meteohub,2013-04-26 21:17:00,
2013-04-26 17:22:00,46.6,35.4,30.38,ENE,68,14.0,15.0,65,0.00,,,0.00,meteohub,2013-04-26 21:22:00,
2013-04-26 17:27:00,46.8,34.9,30.38,ENE,72,13.0,15.0,63,0.00,,,0.00,meteohub,2013-04-26 21:27:00,
2013-04-26 17:32:00,46.8,34.9,30.37,ENE,66,14.0,15.0,63,0.00,,,0.00,meteohub,2013-04-26 21:32:00,
2013-04-26 17:37:00,46.9,34.5,30.38,ENE,67,15.0,15.0,62,0.00,,,0.00,meteohub,2013-04-26 21:37:00,
2013-04-26 17:42:00,46.9,34.5,30.37,ENE,65,14.0,15.0,62,0.00,,,0.00,meteohub,2013-04-26 21:42:00,
2013-04-26 17:47:00,47.1,36.0,30.37,ENE,70,13.0,16.0,65,0.00,,,0.00,meteohub,2013-04-26 21:47:00,
2013-04-26 17:52:00,47.1,35.2,30.38,ENE,69,14.0,16.0,63,0.00,,,0.00,meteohub,2013-04-26 21:52:00,
2013-04-26 17:57:00,47.1,35.2,30.38,ENE,71,13.0,15.0,63,0.00,,,0.00,meteohub,2013-04-26 21:57:00,
2013-04-26 18:02:00,47.1,34.7,30.38,ENE,66,13.0,15.0,62,0.00,,,0.00,meteohub,2013-04-26 22:02:00,
2013-04-26 18:07:00,46.9,35.1,30.38,ENE,61,13.0,16.0,63,0.00,,,0.00,meteohub,2013-04-26 22:07:00,
2013-04-26 18:12:00,46.9,35.4,30.38,ENE,68,13.0,16.0,64,0.00,,,0.00,meteohub,2013-04-26 22:12:00,
2013-04-26 18:17:00,46.9,35.4,30.37,ENE,69,14.0,16.0,64,0.00,,,0.00,meteohub,2013-04-26 22:17:00,
2013-04-26 18:22:00,46.9,34.5,30.38,ENE,69,13.0,16.0,62,0.00,,,0.00,meteohub,2013-04-26 22:22:00,
2013-04-26 18:27:00,47.1,34.3,30.38,ENE,68,15.0,16.0,61,0.00,,,0.00,meteohub,2013-04-26 22:27:00,
2013-04-26 18:32:00,47.1,36.0,30.38,ENE,67,14.0,15.0,65,0.00,,,0.00,meteohub,2013-04-26 22:32:00,
2013-04-26 18:37:00,46.9,34.5,30.38,ENE,65,16.0,16.0,62,0.00,,,0.00,meteohub,2013-04-26 22:37:00,
2013-04-26 18:42:00,46.9,35.8,30.37,ENE,69,14.0,16.0,65,0.00,,,0.00,meteohub,2013-04-26 22:42:00,
2013-04-26 18:47:00,46.9,36.5,30.37,ENE,69,12.0,16.0,67,0.00,,,0.00,meteohub,2013-04-26 22:47:00,
2013-04-26 18:52:00,46.9,36.5,30.38,ENE,73,12.0,16.0,67,0.00,,,0.00,meteohub,2013-04-26 22:52:00,
2013-04-26 18:57:00,46.9,36.9,30.38,ENE,62,13.0,15.0,68,0.00,,,0.00,meteohub,2013-04-26 22:57:00,
2013-04-26 19:02:00,47.1,37.8,30.38,ENE,62,12.0,14.0,70,0.00,,,0.00,meteohub,2013-04-26 23:02:00,
2013-04-26 19:07:00,47.1,36.7,30.37,ENE,61,12.0,14.0,67,0.00,,,0.00,meteohub,2013-04-26 23:07:00,
2013-04-26 19:12:00,46.9,36.1,30.37,ENE,59,12.0,13.0,66,0.00,,,0.00,meteohub,2013-04-26 23:12:00,
2013-04-26 19:17:00,47.1,37.8,30.38,ENE,57,11.0,13.0,70,0.00,,,0.00,meteohub,2013-04-26 23:17:00,
2013-04-26 19:22:00,46.9,36.5,30.38,NE,54,11.0,13.0,67,0.00,,,0.00,meteohub,2013-04-26 23:22:00,
2013-04-26 19:27:00,47.1,37.4,30.38,ENE,59,11.0,13.0,69,0.00,,,0.00,meteohub,2013-04-26 23:27:00,
2013-04-26 19:32:00,47.1,36.0,30.38,ENE,69,10.0,13.0,65,0.00,,,0.00,meteohub,2013-04-26 23:32:00,
2013-04-26 19:37:00,47.1,36.0,30.38,ENE,65,10.0,13.0,65,0.00,,,0.00,meteohub,2013-04-26 23:37:00,
2013-04-26 19:42:00,47.1,36.7,30.38,ENE,61,11.0,13.0,67,0.00,,,0.00,meteohub,2013-04-26 23:42:00,
2013-04-26 19:47:00,47.1,35.2,30.38,ENE,64,11.0,13.0,63,0.00,,,0.00,meteohub,2013-04-26 23:47:00,
2013-04-26 19:52:00,47.1,36.0,30.38,ENE,63,10.0,13.0,65,0.00,,,0.00,meteohub,2013-04-26 23:52:00,
2013-04-26 20:05:00,47.3,37.2,30.38,ENE,68,11.0,11.0,68,0.00,,,0.00,meteohub,2013-04-27 00:05:00,
2013-04-26 20:10:00,47.3,36.9,30.38,ENE,59,10.0,11.0,67,0.00,,,0.00,meteohub,2013-04-27 00:10:00,
2013-04-26 20:16:00,47.5,37.0,30.38,ENE,63,10.0,12.0,67,0.00,,,0.00,meteohub,2013-04-27 00:16:00,
2013-04-26 20:21:00,47.3,35.8,30.38,ENE,66,10.0,12.0,64,0.00,,,0.00,meteohub,2013-04-27 00:21:00,
2013-04-26 20:26:00,47.3,36.1,30.38,ENE,57,11.0,12.0,65,0.00,,,0.00,meteohub,2013-04-27 00:26:00,
2013-04-26 20:31:00,47.3,36.5,30.38,ENE,63,10.0,12.0,66,0.00,,,0.00,meteohub,2013-04-27 00:31:00,
2013-04-26 20:36:00,47.3,36.9,30.38,ENE,73,11.0,12.0,67,0.00,,,0.00,meteohub,2013-04-27 00:36:00,
2013-04-26 20:41:00,47.3,35.8,30.38,ENE,71,11.0,13.0,64,0.00,,,0.00,meteohub,2013-04-27 00:41:00,
2013-04-26 20:46:00,47.5,37.0,30.38,ENE,72,10.0,13.0,67,0.00,,,0.00,meteohub,2013-04-27 00:46:00,
2013-04-26 20:51:00,47.5,36.0,30.38,ENE,75,11.0,13.0,64,0.00,,,0.00,meteohub,2013-04-27 00:51:00,
2013-04-26 20:56:00,47.5,36.0,30.38,ENE,69,11.0,12.0,64,0.00,,,0.00,meteohub,2013-04-27 00:56:00,
2013-04-26 21:01:00,47.5,36.3,30.38,ENE,77,11.0,13.0,65,0.00,,,0.00,meteohub,2013-04-27 01:01:00,
2013-04-26 21:06:00,47.7,36.5,30.38,East,80,11.0,13.0,65,0.00,,,0.00,meteohub,2013-04-27 01:06:00,
2013-04-26 21:11:00,47.5,37.4,30.37,East,85,8.0,13.0,68,0.00,,,0.00,meteohub,2013-04-27 01:11:00,
2013-04-26 21:16:00,47.5,38.8,30.37,East,98,4.0,13.0,72,0.00,,,0.00,meteohub,2013-04-27 01:16:00,
2013-04-26 21:21:00,47.5,37.4,30.37,East,96,5.0,11.0,68,0.00,,,0.00,meteohub,2013-04-27 01:21:00,
2013-04-26 21:26:00,47.3,36.9,30.37,East,97,4.0,9.0,67,0.00,,,0.00,meteohub,2013-04-27 01:26:00,
2013-04-26 21:31:00,47.5,37.0,30.37,East,98,2.0,6.0,67,0.00,,,0.00,meteohub,2013-04-27 01:31:00,
2013-04-26 21:36:00,47.5,36.7,30.37,ESE,106,2.0,6.0,66,0.00,,,0.00,meteohub,2013-04-27 01:36:00,
2013-04-26 21:41:00,47.5,35.6,30.37,ESE,107,2.0,5.0,63,0.00,,,0.00,meteohub,2013-04-27 01:41:00,
2013-04-26 21:46:00,47.5,36.0,30.37,ESE,108,2.0,5.0,64,0.00,,,0.00,meteohub,2013-04-27 01:46:00,
2013-04-26 21:51:00,47.5,35.6,30.37,ESE,108,1.0,4.0,63,0.00,,,0.00,meteohub,2013-04-27 01:51:00,
2013-04-26 21:56:00,47.5,35.6,30.37,ESE,108,1.0,5.0,63,0.00,,,0.00,meteohub,2013-04-27 01:56:00,
2013-04-26 22:01:00,47.5,36.0,30.37,ESE,108,0.0,5.0,64,0.00,,,0.00,meteohub,2013-04-27 02:01:00,
2013-04-26 22:06:00,47.3,36.1,30.37,ESE,108,0.0,5.0,65,0.00,,,0.00,meteohub,2013-04-27 02:06:00,
2013-04-26 22:11:00,47.1,35.2,30.37,ESE,109,1.0,2.0,63,0.00,,,0.00,meteohub,2013-04-27 02:11:00,
2013-04-26 22:16:00,47.3,35.4,30.37,ESE,109,1.0,3.0,63,0.00,,,0.00,meteohub,2013-04-27 02:16:00,
2013-04-26 22:22:00,47.5,35.1,30.37,ESE,110,0.0,3.0,62,0.00,,,0.00,meteohub,2013-04-27 02:22:00,
2013-04-26 22:27:00,47.7,35.6,30.37,ESE,110,0.0,3.0,63,0.00,,,0.00,meteohub,2013-04-27 02:27:00,
2013-04-26 22:32:00,47.5,37.0,30.38,ESE,121,2.0,2.0,67,0.00,,,0.00,meteohub,2013-04-27 02:32:00,
2013-04-26 22:37:00,46.9,35.4,30.38,ESE,122,0.0,3.0,64,0.00,,,0.00,meteohub,2013-04-27 02:37:00,
2013-04-26 22:42:00,46.9,36.9,30.38,ESE,123,0.0,3.0,68,0.00,,,0.00,meteohub,2013-04-27 02:42:00,
2013-04-26 22:47:00,46.9,36.9,30.38,ESE,123,0.0,3.0,68,0.00,,,0.00,meteohub,2013-04-27 02:47:00,
2013-04-26 22:52:00,47.1,37.8,30.38,ESE,122,0.0,0.0,70,0.00,,,0.00,meteohub,2013-04-27 02:52:00,
2013-04-26 22:57:00,46.9,37.6,30.38,ESE,122,0.0,0.0,70,0.00,,,0.00,meteohub,2013-04-27 02:57:00,
2013-04-26 23:02:00,46.8,36.7,30.37,ESE,123,0.0,0.0,68,0.00,,,0.00,meteohub,2013-04-27 03:02:00,
2013-04-26 23:07:00,46.6,36.1,30.37,ESE,122,0.0,0.0,67,0.00,,,0.00,meteohub,2013-04-27 03:07:00,
2013-04-26 23:12:00,46.6,37.0,30.37,ESE,122,0.0,0.0,69,0.00,,,0.00,meteohub,2013-04-27 03:12:00,
2013-04-26 23:17:00,46.4,36.0,30.37,ESE,123,0.0,0.0,67,0.00,,,0.00,meteohub,2013-04-27 03:17:00,
2013-04-26 23:22:00,46.2,34.7,30.37,ESE,123,0.0,0.0,64,0.00,,,0.00,meteohub,2013-04-27 03:22:00,
2013-04-26 23:27:00,46.2,36.7,30.37,ESE,123,0.0,0.0,69,0.00,,,0.00,meteohub,2013-04-27 03:27:00,
2013-04-26 23:32:00,46.0,36.1,30.37,ESE,123,0.0,0.0,68,0.00,,,0.00,meteohub,2013-04-27 03:32:00,
2013-04-26 23:37:00,46.0,37.6,30.37,ESE,123,0.0,0.0,72,0.00,,,0.00,meteohub,2013-04-27 03:37:00,
2013-04-26 23:42:00,45.9,37.0,30.37,ESE,123,0.0,0.0,71,0.00,,,0.00,meteohub,2013-04-27 03:42:00,
2013-04-26 23:47:00,45.7,37.2,30.37,ESE,123,0.0,0.0,72,0.00,,,0.00,meteohub,2013-04-27 03:47:00,
2013-04-26 23:52:00,45.7,37.2,30.37,ESE,123,0.0,0.0,72,0.00,,,0.00,meteohub,2013-04-27 03:52:00,
2013-04-26 23:57:00,45.5,37.0,30.37,ESE,123,0.0,0.0,72,0.00,,,0.00,meteohub,2013-04-27 03:57:00,